Orlando, Florida
Traffic Map
Current Weather Conditions
Orlando, Florida
Overcast
Overcast
18°
Feels Like: 18°
Wind Chill: 18° Ceiling: 1000
Heat Index: 18° Visibility: 10mi
Dew Point: 14° Wind: 9mph
Humidity: 80% Direction: 30° (NNE)
Pressure: 30.25in Gusts: 0mph
Raw Report DataKORL 061653Z 03008KT 10SM BKN010 OVC016 18/14 A3025 RMK AO2 SLP247 T01780144
Traffic Incident Summary
Active as of:
Severity:
Category:
InformationThere was an issue retrieving the traffic information for this location. Please try a different location or try again shortly.
Advertisements
Track Severe Weather on mobile